Weather observations for the past three days for
College Park Airport
Imperial (Metric)
Date Time (edt) Wind (mph) Vis. (mi.) Weather Sky Cond. Temperature (ºF) Relative Humidity Wind Chill (°F) Heat Index (°F) Pressure Precipitation (in)
Air Dwpt 6 hour altimeter (in) sea level (mb) 1 hr 3 hr 6 hr
Max. Min.
05 02:15 W 6 10.00 Fair CLR 77.2 69.4 77% 79 29.88 0.0
05 01:55 W 6 10.00 Fair CLR 77 69.8 81.3 75.9 79% 79 29.88 0.0
05 01:35 W 7 10.00 Fair CLR 77 70 79% 79 29.89 0.0
05 01:15 W 6 10.00 Fair CLR 77 70.3 80% 79 29.89 0.0
05 00:55 NW 3 10.00 Fair CLR 77.2 70.7 81% 79 29.9 0.0
05 00:35 W 3 10.00 Fair CLR 76.8 71.1 82% 78 29.9 0.0
05 00:15 Calm 10.00 Fair CLR 77 71.2 82% 78 29.9 0.0
04 23:55 SW 6 10.00 Fair CLR 77 71.6 83% 78 29.9 0.0
04 23:35 Calm 10.00 Fair CLR 76.6 72.3 87% 78 29.91 0.0
04 23:15 Calm 10.00 Fair CLR 77.4 72.1 84% 79 29.91 0.0
04 22:55 Calm 10.00 Fair CLR 78.4 72 81% 81 29.91 0.0
04 22:35 Calm 10.00 Fair CLR 76.6 73 89% 77 29.91 0.0
04 22:15 Calm 10.00 Fair CLR 78.8 72.1 80% 82 29.9 0.0
04 21:55 Calm 10.00 Fair CLR 79 72.3 80% 82 29.9 0.0
04 21:35 S 3 10.00 Fair CLR 79 72.9 82% 82 29.9 0.0
04 21:15 S 3 10.00 Fair CLR 79.7 73.4 81% 84 29.89 0.0
04 20:55 Calm 10.00 Fair CLR 80.4 72.9 78% 85 29.88 0.0
04 20:35 Calm 7.00 Fair with Haze CLR 80.6 73.6 79% 85 29.88 0.0
04 20:15 S 3 10.00 Fair CLR 81 73.6 78% 86 29.88 0.0
04 19:55 SW 5 10.00 Fair CLR 81.1 74.8 91.9 77.9 81% 87 29.87 0.0
04 19:35 SW 3 10.00 Fair CLR 81.5 75 81% 88 29.88 0.0
04 19:15 Calm 10.00 Fair CLR 81.7 75.2 81% 88 29.88 0.0
04 18:55 SE 5 10.00 Fair CLR 80.6 76.8 88% 87 29.88 0.0
04 18:35 Calm 10.00 Fair CLR 79.7 77.5 93% 85 29.88 0.0
04 18:15 Calm 10.00 Fair CLR 80.1 77.4 92% 86 29.88 0.0
04 17:55 SE 3 10.00 Fair CLR 78.8 76.6 93% 83 29.89 0.0
04 17:35 Calm 10.00 Partly Cloudy SCT120 77.9 75.6 93% 80 29.89 0.0
04 17:15 Calm 10.00 Light Rain SCT120 80.1 75.4 86% 85 29.9 0.0
04 16:55 NW 5 10.00 Light Rain SCT120 85.6 70.5 61% 91 29.9 0.0
04 16:35 NW 6 10.00 Fair CLR 87.3 69.4 56% 92 29.91 0.0
04 16:15 N 7 10.00 Partly Cloudy SCT050 88 69.4 54% 93 29.91 0.0
04 15:55 N 6 10.00 Fair CLR 88.3 68.2 51% 92 29.9 0.0
04 15:35 NW 10 10.00 Fair CLR 90.3 68.9 49% 95 29.91 0.0
04 15:15 N 12 10.00 Fair CLR 89.6 67.8 49% 93 29.9 0.0
04 14:55 NW 8 10.00 Fair CLR 90.9 67.3 46% 94 29.91 0.0
04 14:35 W 8 10.00 Fair CLR 90.1 68.5 49% 94 29.92 0.0
04 14:15 N 8 10.00 Fair CLR 90.3 68.7 49% 95 29.93 0.0
04 13:55 NW 9 10.00 Fair CLR 89.4 68.2 90 74.7 50% 93 29.93 0.0
04 13:35 N 7 10.00 Fair CLR 89.1 68.2 50% 93 29.93 0.0
04 13:15 NW 8 10.00 Fair CLR 88.7 68.5 51% 93 29.94 0.0
04 12:55 W 6 10.00 Fair CLR 87.6 68.4 53% 91 29.94 0.0
04 12:35 W 10 7.00 Fair CLR 86.5 69.1 56% 91 29.95 0.0
04 12:15 W 6 10.00 Fair CLR 86.2 69.6 58% 91 29.96 0.0
04 11:55 NW 7 7.00 Fair CLR 85.1 69.4 60% 89 29.95 0.0
04 11:35 NW 8 10.00 Fair CLR 84.7 69.4 60% 89 29.96 0.0
04 11:15 NW 9 10.00 Fair CLR 84.2 69.6 62% 88 29.96 0.0
04 10:55 NW 8 10.00 Fair CLR 83.1 69.4 63% 87 29.97 0.0
04 10:35 N 7 10.00 Partly Cloudy SCT029 82.8 68.9 63% 86 29.97 0.0
04 10:15 NW 6 10.00 Fair CLR 82.2 69.4 65% 86 29.97 0.0
04 09:55 W 3 10.00 Fair CLR 81 70.2 70% 85 29.97 0.0
04 09:35 W 8 10.00 Fair CLR 80.4 70.7 72% 84 29.97 0.0
04 09:15 W 5 10.00 Fair CLR 79.3 70.9 75% 82 29.97 0.0
04 08:55 W 5 10.00 Fair CLR 77.9 71.1 80% 80 29.97 0.0
04 08:35 W 6 10.00 Fair CLR 76.5 70.7 82% 78 29.97 0.0
04 08:15 Calm 10.00 Fair CLR 75.4 70.7 85% 75 29.97 0.0
04 07:55 W 3 10.00 Partly Cloudy SCT002 SCT120 74.5 70.2 74.7 71.6 86% 29.97 0.0
04 07:35 Calm 10.00 Mostly Cloudy SCT002 SCT100 BKN120 73.8 70.5 90% 29.97 0.0
04 07:15 SW 3 10.00 Partly Cloudy SCT060 SCT100 72.9 70.5 92% 29.96 0.0
04 06:55 Calm 10.00 Mostly Cloudy SCT050 BKN060 72.5 70.5 94% 29.96 0.0
04 06:35 Calm 10.00 Mostly Cloudy BKN070 72.7 70.3 92% 29.96 0.0
04 06:15 Calm 10.00 Mostly Cloudy BKN070 72.1 70.7 95% 29.95 0.0
04 05:55 N 5 10.00 Partly Cloudy SCT070 72 71.1 97% 29.96 0.0
04 05:35 Calm 10.00 Fair CLR 72 70.9 96% 29.93 0.0
04 04:55 Calm 10.00 Fair CLR 71.8 70.7 96% 29.93 0.0
04 04:35 Calm 10.00 Fair CLR 71.8 70.7 96% 29.93 0.0
04 04:15 Calm 10.00 Fair CLR 72.3 70.7 95% 29.93 0.0
04 03:55 Calm 10.00 Partly Cloudy SCT120 72.5 71.1 95% 29.94 0.0
04 03:35 Calm 10.00 Mostly Cloudy SCT005 BKN120 72.3 70.9 95% 29.95 0.0
04 03:15 S 3 10.00 Partly Cloudy SCT120 72.5 71.1 95% 29.95 0.0
04 02:55 Calm 10.00 Partly Cloudy SCT120 72.1 70.9 96% 29.93 0.0
04 02:35 S 3 10.00 Fair CLR 72.5 71.1 95% 29.93 0.0
04 02:15 SE 6 10.00 Fair CLR 72.3 70.5 94% 29.93 0.0
04 01:55 W 5 10.00 Fair CLR 72.5 70.9 87.4 72 95% 29.93 0.0 0.01 0.28
04 01:35 W 6 10.00 Fair CLR 72.1 70.7 95% 29.93 0.0 0.01
04 01:15 Calm 10.00 Light Rain CLR 72.1 70.5 95% 29.92 0.0 0.01
04 00:55 SE 5 10.00 Partly Cloudy SCT110 72.7 70.7 94% 29.96 0.0 0.27
04 00:35 Calm 10.00 Light Rain SCT034 SCT047 BKN110 73.8 70.7 90% 29.98 0.0 0.27
04 00:15 NW 8 3.00 Heavy Rain Fog/Mist SCT034 BKN043 OVC070 73.8 70.5 90% 30.02 0.0 0.24
03 23:55 W 14 G 20 10.00 Mostly Cloudy SCT036 SCT045 BKN075 83.7 73.4 71% 90 30 0.0
03 23:35 NW 9 10.00 Mostly Cloudy SCT032 BKN075 BKN100 84.2 75.2 74% 92 29.95 0.0
03 23:15 Calm 10.00 Partly Cloudy SCT100 80.1 76.1 88% 85 29.92 0.0
03 22:55 Calm 10.00 Fair CLR 81 76.1 85% 87 29.93 0.0
03 22:35 Calm 10.00 Fair CLR 84.7 75.4 74% 93 29.94 0.0
03 22:15 S 3 10.00 Fair CLR 84.9 75.6 74% 94 29.94 0.0
03 21:55 Calm 10.00 Fair CLR 85.5 75.6 72% 95 29.94 0.0
03 21:35 S 3 10.00 Fair CLR 85.6 75.7 72% 95 29.94 0.0
03 21:15 S 3 10.00 Fair CLR 86.7 75.2 69% 96 29.94 0.0
03 20:55 S 5 10.00 Fair CLR 87.3 75 67% 97 29.94 0.0
03 20:35 SW 3 10.00 Fair CLR 86.7 75.4 69% 96 29.96 0.0
03 20:15 S 3 10.00 Fair CLR 87.1 75.6 69% 97 29.96 0.0
03 19:55 S 3 10.00 Fair CLR 87.4 75.6 93.2 87.3 68% 98 29.95 0.0
03 19:35 S 3 10.00 Fair CLR 88.2 75.4 66% 98 29.94 0.0
03 19:15 S 5 10.00 Fair CLR 88.9 75.2 64% 99 29.93 0.0
03 18:55 S 5 10.00 Fair CLR 90.7 71.6 54% 98 29.93 0.0
03 18:35 S 6 10.00 Fair CLR 91.9 72.7 53% 100 29.92 0.0
03 18:15 S 6 10.00 Fair CLR 92.1 73.2 54% 101 29.92 0.0
03 17:55 SW 6 10.00 Fair CLR 92.5 72.7 53% 101 29.92 0.0
03 17:35 SW 6 10.00 Fair CLR 92.5 72.3 52% 101 29.92 0.0
03 17:15 S 5 10.00 Fair CLR 92.1 72 52% 100 29.93 0.0
03 16:55 SW 5 10.00 Fair CLR 91.9 71.2 51% 99 29.93 0.0
03 16:35 SW 6 10.00 Fair CLR 91.9 70.5 50% 98 29.93 0.0
03 16:15 W 7 10.00 Fair CLR 91.8 70.5 50% 98 29.94 0.0
03 15:55 SW 7 5.00 Fair with Haze CLR 90.9 71.6 53% 98 29.95 0.0
03 15:15 SW 7 10.00 Fair CLR 88.3 70.9 56% 94 29.97 0.0
03 14:55 W 7 10.00 Fair CLR 87.8 70.3 56% 93 29.98 0.0
03 14:35 W 6 7.00 Fair CLR 88.9 70.5 55% 95 29.98 0.0
03 14:15 SW 8 10.00 Fair CLR 87.6 69.6 55% 92 29.98 0.0
03 13:55 SW 6 7.00 Fair CLR 88.2 69.6 88.3 74.8 54% 93 29.98 0.0
03 13:35 W 6 10.00 Fair CLR 86.9 70.2 58% 92 30.01 0.0
03 13:15 W 7 10.00 Fair CLR 85.5 72.1 65% 92 30.01 0.0
03 12:55 SW 5 10.00 Fair CLR 83.5 71.2 67% 88 30.03 0.0
03 12:35 W 3 10.00 Fair CLR 82 71.4 70% 87 30.03 0.0
03 12:15 W 7 10.00 Partly Cloudy SCT019 SCT027 SCT070 81 72.1 75% 85 30.06 0.0
03 11:55 NW 7 10.00 Mostly Cloudy BKN017 BKN027 80.4 73 78% 85 30.07 0.0
03 11:35 W 8 10.00 Overcast OVC017 80.8 73.4 78% 86 30.08 0.0
03 11:15 SW 7 10.00 Overcast OVC015 81.3 73.8 78% 87 30.05 0.0
03 10:55 S 6 10.00 Mostly Cloudy BKN015 80.6 73.8 80% 85 30.04 0.0
03 10:35 S 5 10.00 Partly Cloudy SCT013 80.4 73.8 80% 85 30.04 0.0
03 10:15 S 7 10.00 Fair CLR 79.2 73.2 82% 83 30.03 0.0
03 09:55 S 5 10.00 Fair CLR 78.1 72.9 84% 81 30.03 0.0
03 09:35 S 6 10.00 Fair CLR 77.7 72.7 85% 80 30.03 0.0
03 09:15 S 3 10.00 Partly Cloudy SCT014 78.1 72.7 84% 81 30.05 0.0
03 08:55 SE 3 10.00 Mostly Cloudy BKN014 76.5 72.7 88% 77 30.06 0.0
03 08:35 E 3 10.00 Overcast OVC014 75.2 72.5 91% 74 30.07 0.0
03 08:15 N 3 10.00 Overcast OVC018 75 72.7 92% 74 30.08 0.0
03 07:50 NE 6 10.00 Overcast SCT008 OVC016 74.8 72.5 74.8 72 92% 30.09 0.0
03 07:35 N 7 10.00 Overcast SCT008 OVC016 74.7 72.3 92% 30.09 0.0
03 07:15 N 5 10.00 Overcast OVC016 73.8 72 94% 30.07 0.0
03 06:55 N 5 10.00 Overcast OVC014 73.4 71.8 95% 30.06 0.0
03 06:35 NE 6 10.00 Mostly Cloudy BKN014 73 71.6 95% 30.04 0.0
03 06:15 N 7 10.00 Mostly Cloudy BKN014 72.5 71.2 96% 30.04 0.0
03 05:55 Calm 10.00 Overcast OVC014 72.7 71.6 96% 30.03 0.0
03 05:35 Calm 10.00 Overcast OVC014 72.7 71.6 96% 30.03 0.0
03 05:15 Calm 10.00 Overcast OVC014 72.7 71.8 97% 30.04 0.0
03 04:55 Calm 10.00 Overcast OVC014 72.9 71.8 96% 30.03 0.0
03 04:35 NE 3 10.00 Mostly Cloudy SCT012 BKN060 BKN100 72.1 71.1 96% 30.03 0.0
03 04:15 Calm 10.00 Partly Cloudy SCT060 SCT100 72.5 71.2 96% 30.03 0.0
03 03:55 Calm 10.00 Mostly Cloudy SCT060 BKN075 BKN085 73.6 72 95% 30.02 0.0
03 03:35 Calm 10.00 Overcast SCT007 BKN060 OVC095 72.5 71.4 96% 30.03 0.0
03 03:15 Calm 10.00 Overcast SCT007 BKN011 OVC060 72.7 71.2 95% 30.03 0.0
03 02:55 Calm 10.00 Overcast BKN011 OVC023 72.5 71.1 95% 30.03 0.0
03 02:35 Calm 10.00 Overcast BKN011 OVC023 72.5 71.2 96% 30.03 0.0
03 02:15 Calm 10.00 Overcast BKN011 OVC070 72.7 71.1 95% 30.03 0.0
03 01:55 Calm 10.00 Overcast SCT011 OVC070 72.1 71.1 74.1 71.8 96% 30.04 0.0
03 01:35 Calm 10.00 Overcast BKN070 OVC080 71.8 70.7 96% 30.04 0.0
03 01:15 Calm 10.00 Overcast BKN070 OVC080 72.1 70.9 96% 30.04 0.0
03 00:55 Calm 10.00 Overcast BKN070 OVC080 72.5 70.9 95% 30.04 0.0
03 00:35 Calm 10.00 Overcast BKN075 OVC085 72.5 70.9 95% 30.05 0.0
03 00:15 N 3 10.00 Overcast BKN075 OVC095 72.3 70.9 95% 30.06 0.0
02 23:55 N 3 10.00 Mostly Cloudy BKN095 72.5 70.7 94% 30.06 0.0
02 23:35 Calm 10.00 Overcast OVC095 72.5 70.7 94% 30.05 0.0
02 23:15 Calm 10.00 Mostly Cloudy SCT085 BKN095 72.5 70.5 94% 30.06 0.0
02 22:55 Calm 10.00 Mostly Cloudy BKN075 BKN100 72.7 70.5 93% 30.06 0.0
02 22:35 N 5 10.00 Overcast OVC075 73.2 70.7 92% 30.07 0.0
02 22:15 NE 3 10.00 Mostly Cloudy BKN085 72.5 70.7 94% 30.06 0.0
02 21:55 E 3 10.00 Fair CLR 72.5 70.9 95% 30.05 0.0
02 21:35 E 3 10.00 Fair CLR 72.7 70.7 94% 30.04 0.0
02 21:15 Calm 10.00 Partly Cloudy SCT100 73 71.2 94% 30.05 0.0
02 20:55 Calm 10.00 Partly Cloudy SCT100 73 71.4 95% 30.06 0.0
02 20:35 Calm 10.00 Fair CLR 73 71.6 95% 30.05 0.0
02 20:15 E 3 10.00 Fair CLR 73.2 72 96% 30.04 0.0
02 19:55 Calm 10.00 Fair CLR 74.1 72.3 77.4 73.8 94% 30.05 0.0 0.02
02 19:35 Calm 10.00 Fair CLR 74.3 72.3 94% 30.04 0.0
02 19:15 Calm 10.00 Fair CLR 74.8 72.7 93% 30.04 0.0
02 18:55 Calm 10.00 Fair CLR 75.9 71.8 87% 76 30.05 0.0
02 18:35 E 3 10.00 Fair CLR 77 71.4 83% 78 30.05 0.0
02 18:15 NE 3 10.00 Fair CLR 76.6 71.2 83% 78 30.05 0.0
02 17:55 Calm 10.00 Fair CLR 76.5 71.2 84% 77 30.06 0.0
02 17:35 Calm 10.00 Fair CLR 75.6 72.3 90% 75 30.07 0.0
02 17:10 Calm 10.00 Fair CLR 74.7 73 95% 30.07 0.0
02 16:55 Calm 10.00 Fair CLR 74.7 72.3 92% 30.07 0.0 0.02
02 16:35 Calm 10.00 Fair CLR 74.3 72 92% 30.06 0.0
02 16:15 Calm 10.00 Fair CLR 75.2 71.8 89% 75 30.07 0.0
02 15:55 SW 5 10.00 Fair CLR 75.2 71.6 89% 75 30.08 0.0
02 15:35 S 3 10.00 Fair CLR 75 72 90% 74 30.06 0.0
02 15:15 Calm 10.00 Fair CLR 74.8 70.9 88% 30.05 0.0
02 14:55 Calm 10.00 Partly Cloudy SCT048 SCT070 SCT110 74.8 71.2 89% 30.06 0.0 0.01
02 14:35 Calm 10.00 Light Rain SCT050 SCT080 BKN100 74.1 70.2 88% 30.09 0.0 0.01
02 14:15 W 3 10.00 Rain SCT050 BKN095 OVC120 74.1 70.3 88% 30.11 0.0 0.01
02 13:55 N 10 G 28 5.00 Heavy Rain Fog/Mist SCT027 BKN048 OVC065 73.8 70.3 88.5 73.8 89% 30.13 0.0 0.13 0.13
02 13:35 N 18 G 30 10.00 Mostly Cloudy BKN028 BKN048 BKN090 83.8 72.3 68% 90 30.15 0.0
02 13:15 NE 6 10.00 Partly Cloudy SCT030 87.4 73.4 63% 95 30.1 0.0
02 12:55 E 7 10.00 Partly Cloudy SCT030 87.6 73.4 63% 96 30.09 0.0
02 12:35 N 6 10.00 Fair CLR 87.3 73.8 64% 95 30.08 0.0
02 12:15 Calm 10.00 Fair CLR 86.4 72.9 64% 93 30.08 0.0
02 11:55 E 3 10.00 Fair CLR 86 73.2 66% 93 30.08 0.0
02 11:35 E 6 10.00 Fair CLR 85.8 73.9 68% 94 30.08 0.0
02 11:15 E 6 10.00 Fair CLR 85.8 73.2 66% 93 30.08 0.0
02 10:55 E 8 10.00 Fair CLR 85.5 72.7 66% 92 30.08 0.0
02 10:35 NE 6 10.00 Fair CLR 84 71.6 66% 89 30.08 0.0
02 10:15 E 5 10.00 Fair CLR 84 71.6 66% 89 30.08 0.0
02 09:55 NE 5 10.00 Fair CLR 82.6 71.1 68% 87 30.08 0.0
02 09:35 NE 5 10.00 Fair CLR 81.9 70.5 69% 86 30.08 0.0
02 09:15 E 5 10.00 Fair CLR 81.7 71.1 70% 86 30.08 0.0
02 08:55 E 3 10.00 Fair CLR 80.4 70.5 72% 84 30.07 0.0
02 08:35 E 5 10.00 Fair CLR 79.2 70.5 75% 82 30.06 0.0
02 08:15 NE 3 10.00 Fair CLR 77.7 71.2 81% 80 30.06 0.0
02 07:55 Calm 10.00 Fair CLR 75.9 71.6 80.4 73.4 87% 76 30.06 0.0
02 07:35 Calm 10.00 Fair CLR 75.9 71.1 85% 76 30.06 0.0
02 07:15 Calm 10.00 Fair CLR 75 71.4 89% 74 30.06 0.0
02 06:55 Calm 10.00 Fair CLR 73.9 71.4 92% 30.06 0.0
02 06:35 Calm 10.00 Fair CLR 74.3 71.1 90% 30.06 0.0
02 06:15 Calm 10.00 Fair CLR 74.3 71.4 91% 30.06 0.0
02 05:55 Calm 10.00 Fair CLR 73.8 70.9 91% 30.05 0.0
02 05:35 Calm 10.00 Fair CLR 74.7 71.1 89% 30.05 0.0
02 05:15 Calm 10.00 Fair CLR 75.4 71.2 87% 75 30.05 0.0
02 04:55 Calm 10.00 Fair CLR 76.1 71.2 85% 77 30.05 0.0
02 04:35 Calm 10.00 Fair CLR 75.9 71.4 86% 76 30.05 0.0
02 04:15 Calm 10.00 Fair CLR 76.5 71.8 86% 77 30.05 0.0
02 03:55 Calm 10.00 Fair CLR 75.9 72.1 88% 76 30.04 0.0
02 03:35 Calm 10.00 Fair CLR 75.7 72.3 89% 76 30.04 0.0
02 03:15 Calm 10.00 Fair CLR 76.1 72.1 88% 76 30.04 0.0
02 02:55 Calm 10.00 Fair CLR 78.1 72 82% 80 30.03 0.0
Date Time (edt) Wind (mph) Vis. (mi.) Weather Sky Cond. Air Dwpt Max. Min. Relative Humidity Wind Chill (°F) Heat Index (°F) altimeter (in) sea level (mb) 1 hr 3 hr 6 hr
6 hour
Temperature (ºF) Pressure Precipitation (in)